Time;durP1;ratioP1;P1;durP2;ratioP2;P2;SDS_P1;SDS_P2;PMS_P1;PMS_P2;Temp;Humidity;BMP_temperature;BMP_pressure;BME280_temperature;BME280_humidity;BME280_pressure;Samples;Min_cycle;Max_cycle;Signal;HPM_P1;HPM_P2
2021/10/09 00:02:54;;;;;;;6.32;1.67;;;;;;;16.36;100.00;101140.03;6338278;22;20021;-46
2021/10/09 00:05:56;;;;;;;7.47;2.67;;;;;;;16.37;100.00;101135.94;6338358;22;20065;-46
2021/10/09 00:08:59;;;;;;;8.00;2.47;;;;;;;16.38;100.00;101137.50;6338447;22;20026;-46
2021/10/09 00:12:07;;;;;;;9.73;1.77;;;;;;;16.29;100.00;101143.22;6338112;22;20080;-46
2021/10/09 00:15:10;;;;;;;9.15;2.47;;;;;;;16.19;100.00;101141.00;6338417;22;20057;-46
2021/10/09 00:18:13;;;;;;;13.60;3.47;;;;;;;16.21;100.00;101130.03;6338268;22;20092;-46
2021/10/09 00:21:17;;;;;;;6.68;2.20;;;;;;;16.14;100.00;101128.38;6338188;22;20455;-46
2021/10/09 00:24:20;;;;;;;7.97;1.38;;;;;;;16.02;100.00;101128.66;6338207;22;20025;-46
2021/10/09 00:27:23;;;;;;;10.45;2.50;;;;;;;15.92;100.00;101128.75;6338125;22;20030;-46
2021/10/09 00:30:26;;;;;;;7.95;2.83;;;;;;;15.90;100.00;101130.47;6338019;22;20025;-46
2021/10/09 00:33:29;;;;;;;9.77;3.08;;;;;;;15.97;100.00;101127.28;6337915;22;20069;-46
2021/10/09 00:36:32;;;;;;;4.57;1.60;;;;;;;15.87;100.00;101128.66;6338214;22;20107;-46
2021/10/09 00:39:35;;;;;;;8.95;2.95;;;;;;;15.82;100.00;101118.84;6338303;22;20029;-48
2021/10/09 00:42:38;;;;;;;6.15;1.75;;;;;;;15.79;100.00;101119.00;6339823;22;20030;-48
2021/10/09 00:45:52;;;;;;;11.05;2.55;;;;;;;15.77;100.00;101124.34;6320889;22;20045;-48
2021/10/09 00:48:55;;;;;;;14.50;2.65;;;;;;;15.80;100.00;101114.97;6339788;22;20029;-48
2021/10/09 00:52:04;;;;;;;7.63;2.05;;;;;;;15.84;100.00;101116.34;6338512;22;20052;-48
2021/10/09 00:55:09;;;;;;;8.98;2.65;;;;;;;15.85;100.00;101129.09;6336971;22;20397;-48
2021/10/09 00:58:15;;;;;;;8.02;3.10;;;;;;;15.85;100.00;101129.09;6336622;22;20026;-48
2021/10/09 01:01:18;;;;;;;9.13;2.03;;;;;;;15.87;100.00;101120.97;6336242;22;20185;-48
2021/10/09 01:04:22;;;;;;;5.38;2.03;;;;;;;15.82;100.00;101123.69;6336773;22;20025;-48
2021/10/09 01:07:25;;;;;;;4.50;1.13;;;;;;;15.81;100.00;101124.94;6337171;22;20030;-48
2021/10/09 01:10:28;;;;;;;7.30;1.15;;;;;;;15.83;100.00;101130.88;6336456;22;20021;-48
2021/10/09 01:13:31;;;;;;;14.63;2.13;;;;;;;15.84;100.00;101124.75;6336729;22;20106;-48
2021/10/09 01:16:34;;;;;;;11.43;2.67;;;;;;;15.88;100.00;101128.16;6336343;22;20052;-48
2021/10/09 01:19:36;;;;;;;15.07;3.28;;;;;;;15.94;100.00;101125.44;6305317;22;20034;-48
2021/10/09 01:22:40;;;;;;;9.10;2.92;;;;;;;16.02;100.00;101121.00;6305369;22;20072;-48
2021/10/09 01:25:43;;;;;;;11.38;2.10;;;;;;;16.18;100.00;101123.34;6305853;22;20050;-48
2021/10/09 01:28:48;;;;;;;11.15;1.75;;;;;;;16.18;100.00;101117.72;6305352;22;20042;-48
2021/10/09 01:31:52;;;;;;;14.13;2.75;;;;;;;16.07;100.00;101111.91;6305324;22;20026;-49
2021/10/09 01:34:55;;;;;;;13.77;2.88;;;;;;;16.04;100.00;101101.63;6304894;22;20042;-48
2021/10/09 01:37:58;;;;;;;10.32;1.55;;;;;;;16.03;100.00;101111.31;6305613;22;20373;-49
2021/10/09 01:41:02;;;;;;;8.60;2.33;;;;;;;15.99;100.00;101107.91;6305608;22;20045;-48
2021/10/09 01:44:06;;;;;;;3.53;1.90;;;;;;;15.96;100.00;101106.06;6307524;22;20026;-48
2021/10/09 01:47:09;;;;;;;10.30;1.67;;;;;;;15.98;100.00;101097.16;6307646;22;20398;-48
2021/10/09 01:50:12;;;;;;;14.18;2.53;;;;;;;16.01;100.00;101091.34;6308137;22;20327;-48
2021/10/09 01:53:15;;;;;;;8.27;2.63;;;;;;;16.05;100.00;101091.94;6288041;22;20030;-49
2021/10/09 01:56:18;;;;;;;6.30;2.25;;;;;;;16.12;100.00;101091.56;6308095;22;20042;-48
2021/10/09 01:59:21;;;;;;;9.95;2.17;;;;;;;16.10;100.00;101082.84;6307958;22;20324;-48
2021/10/09 02:02:24;;;;;;;9.05;2.75;;;;;;;16.05;100.00;101091.94;6307687;22;20045;-48
2021/10/09 02:05:27;;;;;;;5.28;2.08;;;;;;;16.04;100.00;101087.59;6307318;22;20038;-48
2021/10/09 02:08:30;;;;;;;10.15;2.97;;;;;;;16.05;100.00;101083.50;6308161;22;20026;-48
2021/10/09 02:11:39;;;;;;;9.63;2.28;;;;;;;16.10;100.00;101082.84;6307438;22;20041;-48
2021/10/09 02:14:57;;;;;;;16.85;2.28;;;;;;;16.06;100.00;101082.25;6308061;22;20026;-48
2021/10/09 02:27:50;;;;;;;10.00;2.65;;;;;;;16.04;100.00;101081.97;6339111;22;20038;-48
2021/10/09 02:30:54;;;;;;;9.05;2.72;;;;;;;15.98;100.00;101081.09;6338921;22;20025;-48
2021/10/09 02:33:58;;;;;;;17.67;2.15;;;;;;;15.93;100.00;101064.91;6338927;22;20026;-48
2021/10/09 02:37:00;;;;;;;9.30;1.60;;;;;;;15.90;100.00;101057.44;6338167;22;20071;-48
2021/10/09 02:40:04;;;;;;;17.67;3.58;;;;;;;15.98;100.00;101060.66;6339244;22;20102;-49
2021/10/09 02:43:07;;;;;;;10.75;3.17;;;;;;;15.95;100.00;101065.19;6338843;22;20022;-48
2021/10/09 02:46:11;;;;;;;4.60;2.38;;;;;;;16.03;100.00;101049.50;6338811;22;20103;-48
2021/10/09 02:49:13;;;;;;;14.15;3.17;;;;;;;16.03;100.00;101059.94;6338982;22;20036;-46
2021/10/09 02:52:16;;;;;;;12.43;2.17;;;;;;;16.05;100.00;101063.06;6338762;22;20025;-48
2021/10/09 02:55:20;;;;;;;15.93;3.17;;;;;;;15.99;100.00;101057.34;6338853;22;20390;-48
2021/10/09 02:58:23;;;;;;;12.63;2.17;;;;;;;16.02;100.00;101042.34;6338684;22;20026;-48
2021/10/09 03:01:25;;;;;;;12.75;3.45;;;;;;;16.11;100.00;101055.50;6319287;22;20335;-48
2021/10/09 03:04:29;;;;;;;25.10;3.40;;;;;;;15.97;100.00;101040.19;6337912;22;20447;-49
2021/10/09 03:07:32;;;;;;;16.25;3.90;;;;;;;16.01;100.00;101046.41;6338510;22;20455;-48
2021/10/09 03:10:35;;;;;;;11.95;2.17;;;;;;;16.05;100.00;101035.72;6337945;22;20025;-48
2021/10/09 03:13:38;;;;;;;10.95;3.42;;;;;;;16.09;100.00;101035.56;6338211;22;20068;-48
2021/10/09 03:16:41;;;;;;;10.75;2.45;;;;;;;16.14;100.00;101032.81;6338366;22;20630;-48
2021/10/09 03:19:44;;;;;;;14.10;2.00;;;;;;;16.06;100.00;101031.66;6338982;22;20049;-48
2021/10/09 03:22:47;;;;;;;10.25;2.45;;;;;;;16.04;100.00;101034.19;6338609;22;20022;-49
2021/10/09 03:25:50;;;;;;;22.63;4.35;;;;;;;15.95;100.00;101031.47;6338767;22;20075;-48
2021/10/09 03:28:53;;;;;;;11.07;3.17;;;;;;;15.91;100.00;101034.50;6338552;22;20343;-48
2021/10/09 03:31:56;;;;;;;11.93;1.88;;;;;;;15.96;100.00;101033.00;6338376;22;20058;-48
2021/10/09 03:34:59;;;;;;;11.38;2.50;;;;;;;15.98;100.00;101036.13;6338352;22;20030;-48
2021/10/09 03:38:03;;;;;;;19.42;3.08;;;;;;;16.03;100.00;101038.25;6338512;22;20508;-49
2021/10/09 03:41:09;;;;;;;9.32;1.95;;;;;;;16.02;100.00;101031.09;6338013;22;20022;-48
2021/10/09 03:44:12;;;;;;;10.85;2.08;;;;;;;16.03;100.00;101032.63;6338654;22;20114;-48
2021/10/09 03:47:21;;;;;;;18.80;2.83;;;;;;;16.02;100.00;101031.09;6338283;22;20057;-49
2021/10/09 03:53:36;;;;;;;14.55;2.25;;;;;;;15.92;100.00;101026.81;6338267;22;20026;-49
2021/10/09 03:56:39;;;;;;;19.25;2.88;;;;;;;15.97;100.00;101040.19;6338647;22;20025;-48
2021/10/09 03:59:42;;;;;;;10.13;2.15;;;;;;;15.98;100.00;101029.75;6338356;22;20038;-48
2021/10/09 04:02:46;;;;;;;3.83;1.70;;;;;;;15.93;100.00;101029.16;6338322;22;20393;-49
2021/10/09 04:05:49;;;;;;;4.53;2.28;;;;;;;15.94;100.00;101032.72;6338474;22;20092;-48
2021/10/09 04:08:52;;;;;;;10.40;2.17;;;;;;;15.94;100.00;101041.94;6338701;22;20101;-48
2021/10/09 04:11:55;;;;;;;15.95;3.17;;;;;;;15.96;100.00;101038.63;6338239;22;20471;-48
2021/10/09 04:14:59;;;;;;;7.25;2.58;;;;;;;15.96;100.00;101046.31;6338438;22;20030;-48
2021/10/09 04:18:02;;;;;;;13.57;2.25;;;;;;;15.92;100.00;101043.66;6340328;22;20030;-48
2021/10/09 04:21:05;;;;;;;14.98;3.45;;;;;;;15.82;100.00;101053.47;6320943;22;20482;-48
2021/10/09 04:24:08;;;;;;;5.43;2.08;;;;;;;15.80;100.00;101053.16;6340040;22;20186;-48
2021/10/09 04:27:11;;;;;;;9.10;2.13;;;;;;;15.88;100.00;101043.88;6340002;22;20347;-48
2021/10/09 04:30:14;;;;;;;10.80;1.67;;;;;;;15.96;100.00;101038.63;6339461;22;20090;-48
2021/10/09 04:33:16;;;;;;;5.22;2.55;;;;;;;15.90;100.00;101043.38;6339482;22;20026;-48
2021/10/09 04:36:19;;;;;;;5.00;1.88;;;;;;;15.82;100.00;101047.84;6340017;22;20099;-48
2021/10/09 04:39:23;;;;;;;12.15;2.45;;;;;;;15.76;100.00;101052.59;6339990;22;20025;-48
2021/10/09 04:42:26;;;;;;;2.95;1.58;;;;;;;15.69;100.00;101050.94;6339723;22;20438;-48
2021/10/09 04:45:29;;;;;;;8.80;1.85;;;;;;;15.68;100.00;101034.56;6339334;22;20071;-48
2021/10/09 04:48:32;;;;;;;14.82;2.58;;;;;;;15.66;100.00;101049.06;6339863;22;20025;-48
2021/10/09 04:51:36;;;;;;;13.13;2.90;;;;;;;15.67;100.00;101052.66;6339661;22;20026;-48
2021/10/09 04:54:39;;;;;;;5.40;1.45;;;;;;;15.77;100.00;101054.13;6340084;22;20087;-48
2021/10/09 04:57:42;;;;;;;8.30;1.67;;;;;;;15.73;100.00;101047.91;6340152;22;20339;-48
2021/10/09 05:00:47;;;;;;;16.10;4.00;;;;;;;15.80;100.00;101058.78;6340104;22;20017;-48
2021/10/09 05:03:50;;;;;;;4.47;2.40;;;;;;;15.84;100.00;101053.75;6340132;22;20506;-48
2021/10/09 05:06:52;;;;;;;8.05;2.97;;;;;;;15.88;100.00;101057.13;6339926;22;20022;-48
2021/10/09 05:09:56;;;;;;;10.13;2.20;;;;;;;15.84;100.00;101046.09;6340109;22;20339;-48
2021/10/09 05:12:59;;;;;;;14.15;3.05;;;;;;;15.87;100.00;101047.19;6320391;22;20076;-48
2021/10/09 05:16:02;;;;;;;8.88;1.55;;;;;;;15.90;100.00;101046.19;6339258;22;20026;-48
2021/10/09 05:19:05;;;;;;;9.93;3.25;;;;;;;15.87;100.00;101049.97;6338291;22;20065;-48
2021/10/09 05:22:08;;;;;;;10.73;2.42;;;;;;;15.84;100.00;101056.56;6339391;22;20021;-48
2021/10/09 05:25:12;;;;;;;14.85;2.67;;;;;;;15.79;100.00;101062.84;6339750;22;20025;-50
2021/10/09 05:28:18;;;;;;;24.80;3.38;;;;;;;15.82;100.00;101053.47;6339297;22;20048;-46
2021/10/09 05:31:24;;;;;;;9.85;2.35;;;;;;;15.89;100.00;101064.31;6339398;22;20583;-48
2021/10/09 05:34:27;;;;;;;18.10;3.90;;;;;;;15.92;100.00;101060.53;6338911;22;20025;-50
2021/10/09 05:37:32;;;;;;;14.48;2.80;;;;;;;15.94;100.00;101058.00;6339072;22;20021;-48
2021/10/09 05:40:35;;;;;;;24.13;5.40;;;;;;;15.95;100.00;101059.56;6339370;22;20026;-49
2021/10/09 05:43:38;;;;;;;22.60;4.40;;;;;;;15.98;100.00;101060.66;6339271;22;20030;-48
2021/10/09 05:46:41;;;;;;;6.82;1.63;;;;;;;15.99;100.00;101060.16;6339107;22;20026;-48
2021/10/09 05:49:44;;;;;;;10.07;3.25;;;;;;;15.95;100.00;101065.19;6339645;22;20072;-48
2021/10/09 05:53:07;;;;;;;13.75;3.90;;;;;;;15.94;100.00;101066.44;6339298;22;20427;-48
2021/10/09 06:59:40;;;;;;;22.25;4.85;;;;;;;15.94;100.00;101108.59;6338001;22;20022;-46
2021/10/09 07:02:44;;;;;;;17.75;4.30;;;;;;;16.04;100.00;101096.00;6319332;22;20022;-48
2021/10/09 07:05:48;;;;;;;25.63;3.65;;;;;;;16.12;100.00;101100.00;6319701;22;20395;-48
2021/10/09 07:08:51;;;;;;;17.75;3.33;;;;;;;16.08;100.00;101102.22;6338388;22;20530;-49
2021/10/09 07:11:54;;;;;;;25.88;5.72;;;;;;;16.09;100.00;101103.75;6338227;22;20336;-48
2021/10/09 07:14:57;;;;;;;14.10;2.92;;;;;;;16.16;100.00;101097.75;6338590;22;20022;-49
2021/10/09 07:18:00;;;;;;;26.13;5.38;;;;;;;16.26;100.00;101101.25;6338232;22;20454;-48
2021/10/09 07:34:41;;;;;;;18.00;5.88;;;;;;;16.34;100.00;101108.81;6291523;22;1390170;-49
2021/10/09 07:37:44;;;;;;;25.65;3.90;;;;;;;16.31;100.00;101104.16;6347087;22;20399;-49
2021/10/09 07:40:47;;;;;;;9.18;4.60;;;;;;;16.32;100.00;101110.56;6347367;22;20322;-49
2021/10/09 07:43:49;;;;;;;21.27;5.18;;;;;;;16.36;100.00;101109.09;6347467;22;20063;-49
2021/10/09 07:46:53;;;;;;;12.13;3.95;;;;;;;16.38;100.00;101109.41;6347299;22;20396;-49
2021/10/09 07:49:56;;;;;;;26.23;4.72;;;;;;;16.40;100.00;101118.13;6347299;22;20025;-49
2021/10/09 07:52:59;;;;;;;19.30;4.00;;;;;;;16.46;100.00;101118.97;6346539;22;20021;-49
2021/10/09 07:56:03;;;;;;;15.52;4.07;;;;;;;16.50;100.00;101122.41;6346386;22;20068;-48
2021/10/09 07:59:06;;;;;;;13.13;3.40;;;;;;;16.59;100.00;101122.31;6346172;22;20072;-49
2021/10/09 08:02:09;;;;;;;29.60;5.43;;;;;;;16.62;100.00;101124.16;6346552;22;20025;-48
2021/10/09 08:05:12;;;;;;;19.00;4.50;;;;;;;16.71;100.00;101125.31;6347114;22;20044;-48
2021/10/09 08:08:15;;;;;;;17.10;2.88;;;;;;;16.67;100.00;101126.25;6347425;22;20105;-48
2021/10/09 08:11:18;;;;;;;11.40;4.10;;;;;;;16.74;100.00;101129.97;6346819;22;20384;-47
2021/10/09 08:14:21;;;;;;;17.92;3.78;;;;;;;16.80;100.00;101130.81;6327988;22;20079;-47
2021/10/09 08:17:24;;;;;;;15.00;2.90;;;;;;;16.84;100.00;101129.38;6346820;22;20079;-48
2021/10/09 08:20:27;;;;;;;10.35;3.90;;;;;;;16.87;100.00;101138.88;6347159;22;20030;-47
2021/10/09 08:23:50;;;;;;;21.15;3.60;;;;;;;16.90;100.00;101137.88;6346076;22;20025;-47
2021/10/09 08:39:33;;;;;;;12.13;2.92;;;;;;;17.03;100.00;101138.34;6339700;22;20339;-48
2021/10/09 08:42:36;;;;;;;10.27;3.00;;;;;;;17.05;100.00;101144.25;6339796;22;20025;-47
2021/10/09 08:45:39;;;;;;;15.60;4.82;;;;;;;16.98;100.00;101144.66;6339779;22;20026;-47
2021/10/09 08:48:51;;;;;;;20.17;3.28;;;;;;;16.98;100.00;101147.50;6339240;22;20053;-47
2021/10/09 08:51:54;;;;;;;25.40;3.90;;;;;;;17.03;100.00;101143.97;6339531;22;20021;-48
2021/10/09 08:54:58;;;;;;;12.80;2.10;;;;;;;17.06;100.00;101140.19;6339722;22;20025;-47
2021/10/09 08:58:04;;;;;;;17.42;3.60;;;;;;;17.08;100.00;101149.69;6339714;22;20486;-48
2021/10/09 09:01:23;;;;;;;8.40;2.58;;;;;;;17.12;100.00;101149.47;6339444;22;20399;-48
2021/10/09 09:04:43;;;;;;;15.95;1.95;;;;;;;17.16;100.00;101144.41;6319732;22;20051;-47
2021/10/09 09:08:10;;;;;;;12.82;2.70;;;;;;;17.25;100.00;101149.94;6339432;22;20123;-47
2021/10/09 09:41:47;;;;;;;14.15;3.08;;;;;;;17.81;100.00;101149.41;6338394;22;20026;-48
2021/10/09 09:44:56;;;;;;;11.65;3.08;;;;;;;17.88;100.00;101153.84;6320706;22;20377;-48
2021/10/09 09:48:04;;;;;;;14.80;2.60;;;;;;;17.88;100.00;101151.81;6338749;22;20025;-49
2021/10/09 09:51:15;;;;;;;16.70;3.33;;;;;;;17.93;100.00;101148.25;6338753;22;20029;-48
2021/10/09 09:54:18;;;;;;;9.25;2.88;;;;;;;17.95;100.00;101153.44;6338286;22;20053;-48
2021/10/09 09:57:24;;;;;;;17.30;2.58;;;;;;;17.98;100.00;101153.19;6338649;22;20097;-48
2021/10/09 10:00:32;;;;;;;11.02;2.20;;;;;;;17.98;100.00;101141.94;6319519;22;20026;-48
2021/10/09 10:03:37;;;;;;;12.15;3.45;;;;;;;18.11;100.00;101150.78;6319763;22;20458;-48
2021/10/09 10:06:40;;;;;;;18.48;3.80;;;;;;;18.23;100.00;101150.91;6338920;22;20064;-48
2021/10/09 10:09:43;;;;;;;14.77;4.28;;;;;;;18.27;100.00;101145.81;6338628;22;20021;-48
2021/10/09 10:12:54;;;;;;;15.35;3.15;;;;;;;18.28;100.00;101147.38;6338812;22;20022;-49
2021/10/09 10:16:03;;;;;;;17.85;3.50;;;;;;;18.38;100.00;101145.94;6338745;22;20048;-49
2021/10/09 10:19:07;;;;;;;9.95;2.13;;;;;;;18.40;100.00;101137.75;6338980;22;20385;-49
2021/10/09 10:22:09;;;;;;;17.65;2.70;;;;;;;18.40;100.00;101138.50;6338533;22;20032;-48
2021/10/09 10:25:26;;;;;;;12.15;3.97;;;;;;;18.43;100.00;101134.69;6338830;22;20334;-48
2021/10/09 10:28:29;;;;;;;12.10;2.75;;;;;;;18.44;100.00;101138.28;6338522;22;20024;-49
2021/10/09 10:31:36;;;;;;;11.77;2.13;;;;;;;18.45;100.00;101139.88;6338978;22;20068;-48
2021/10/09 10:34:39;;;;;;;9.00;2.92;;;;;;;18.37;100.00;101133.84;6338329;22;20148;-48
2021/10/09 10:37:42;;;;;;;9.45;2.17;;;;;;;18.36;100.00;101137.97;6338706;22;20022;-49
2021/10/09 10:40:51;;;;;;;16.00;3.42;;;;;;;18.35;100.00;101136.41;6318961;22;20021;-48
2021/10/09 10:43:55;;;;;;;9.00;2.72;;;;;;;18.22;100.00;101138.06;6338595;22;20057;-48
2021/10/09 10:47:03;;;;;;;14.20;3.28;;;;;;;18.17;100.00;101134.69;6338361;22;20025;-49
2021/10/09 10:50:19;;;;;;;11.13;2.35;;;;;;;18.15;100.00;101153.38;6338315;22;20068;-48
2021/10/09 10:53:57;;;;;;;17.20;2.95;;;;;;;18.11;100.00;101139.50;6322052;22;20512;-49
2021/10/09 10:57:02;;;;;;;16.42;3.25;;;;;;;18.05;100.00;101143.53;6336795;22;20450;-48
2021/10/09 11:00:13;;;;;;;12.05;2.92;;;;;;;18.03;100.00;101141.22;6338526;22;20068;-48
2021/10/09 11:03:16;;;;;;;12.00;2.70;;;;;;;17.99;100.00;101146.31;6313565;22;20110;-48
2021/10/09 11:06:24;;;;;;;9.50;2.90;;;;;;;17.92;100.00;101155.19;6292222;22;20018;-48
2021/10/09 11:09:28;;;;;;;26.23;4.15;;;;;;;17.91;100.00;101153.63;6291271;22;20163;-48
2021/10/09 11:12:33;;;;;;;19.65;4.20;;;;;;;17.93;100.00;101144.69;6288905;22;20073;-48
2021/10/09 11:15:46;;;;;;;11.90;2.55;;;;;;;17.92;100.00;101155.19;6290201;22;20041;-48
2021/10/09 11:18:51;;;;;;;14.50;3.17;;;;;;;17.87;100.00;101150.25;6288900;22;20017;-48
2021/10/09 11:21:54;;;;;;;17.35;4.18;;;;;;;17.85;100.00;101149.97;6289028;22;20295;-48
2021/10/09 11:24:56;;;;;;;13.82;3.92;;;;;;;17.86;100.00;101150.75;6291551;22;20013;-48
2021/10/09 11:28:05;;;;;;;18.50;4.43;;;;;;;17.84;100.00;101142.81;6292097;22;20383;-48
2021/10/09 11:31:09;;;;;;;14.25;3.28;;;;;;;17.91;100.00;101148.00;6289606;22;20033;-48
2021/10/09 11:34:11;;;;;;;14.25;3.15;;;;;;;17.93;100.00;101139.81;6289947;22;20045;-48
2021/10/09 11:37:16;;;;;;;12.05;3.13;;;;;;;17.96;100.00;101138.84;6290348;22;20353;-48
2021/10/09 11:40:31;;;;;;;14.15;3.70;;;;;;;18.00;100.00;101138.59;6289187;22;20446;-48
2021/10/09 11:43:52;;;;;;;8.88;3.03;;;;;;;18.01;100.00;101135.31;6288659;22;20058;-49
2021/10/09 11:53:57;;;;;;;8.68;2.20;;;;;;;18.06;100.00;101134.56;6289114;22;20045;-48
2021/10/09 11:57:03;;;;;;;11.45;2.58;;;;;;;18.05;100.00;101133.03;6289002;22;20083;-49
2021/10/09 12:00:45;;;;;;;16.23;3.33;;;;;;;18.14;100.00;101140.56;6288580;22;20014;-48
2021/10/09 12:03:48;;;;;;;11.40;2.67;;;;;;;18.18;100.00;101133.44;6192535;23;20619;-48
2021/10/09 12:06:55;;;;;;;9.35;2.33;;;;;;;18.26;100.00;101135.81;6193590;23;20079;-48
2021/10/09 12:10:14;;;;;;;9.68;2.15;;;;;;;18.22;100.00;101132.41;6291003;22;20404;-48
2021/10/09 12:13:18;;;;;;;7.68;2.58;;;;;;;18.09;100.00;101136.41;6291594;22;20041;-48
2021/10/09 12:16:43;;;;;;;13.18;2.83;;;;;;;18.12;100.00;101123.38;6291397;22;20068;-48
2021/10/09 12:19:48;;;;;;;11.70;2.58;;;;;;;18.31;100.00;101124.59;6291758;22;20026;-48
2021/10/09 12:22:55;;;;;;;10.95;2.47;;;;;;;18.30;100.00;101125.09;6291185;22;20842;-48
2021/10/09 12:26:12;;;;;;;10.80;3.13;;;;;;;18.39;100.00;101119.25;6289670;22;20569;-48
2021/10/09 12:29:17;;;;;;;9.20;2.67;;;;;;;18.49;100.00;101118.63;6292269;22;20009;-48
2021/10/09 12:32:21;;;;;;;8.52;2.92;;;;;;;18.55;100.00;101113.03;6291741;22;20469;-48
2021/10/09 12:35:30;;;;;;;17.20;2.88;;;;;;;18.61;100.00;101116.66;6295456;22;20691;-48
2021/10/09 12:38:39;;;;;;;9.98;2.90;;;;;;;18.68;100.00;101102.88;6291957;22;20392;-48
2021/10/09 12:41:43;;;;;;;9.25;2.80;;;;;;;18.76;100.00;101115.25;6292564;22;20057;-48
2021/10/09 12:44:46;;;;;;;10.50;2.55;;;;;;;18.78;100.00;101109.09;6292298;22;20131;-49
2021/10/09 12:47:49;;;;;;;10.68;2.05;;;;;;;18.85;100.00;101105.81;6293648;22;20401;-49
2021/10/09 12:50:53;;;;;;;6.40;2.22;;;;;;;18.97;100.00;101107.44;6293079;22;20017;-49
2021/10/09 12:54:03;;;;;;;15.20;3.42;;;;;;;19.04;100.00;101103.34;6299001;22;20013;-47
2021/10/09 12:57:07;;;;;;;8.50;1.83;;;;;;;19.06;100.00;101095.19;6299576;22;20033;-44
2021/10/09 13:00:11;;;;;;;8.57;2.00;;;;;;;19.03;100.00;101105.44;6300615;22;20018;-45
2021/10/09 13:03:14;;;;;;;14.27;2.70;;;;;;;19.12;100.00;101096.75;6303211;22;20481;-45
2021/10/09 13:06:19;;;;;;;13.90;2.45;;;;;;;19.13;100.00;101097.50;6300145;22;20050;-45
2021/10/09 13:09:24;;;;;;;13.40;2.90;;;;;;;19.14;100.00;101099.06;6280825;22;20041;-45
2021/10/09 13:12:26;;;;;;;9.32;2.70;;;;;;;19.13;100.00;101100.34;6273004;22;20026;-44
2021/10/09 13:15:30;;;;;;;6.13;2.20;;;;;;;19.13;100.00;101098.28;6293660;22;20028;-44
2021/10/09 13:18:33;;;;;;;6.05;2.05;;;;;;;19.14;100.00;101102.69;6293149;22;20501;-44
2021/10/09 13:21:36;;;;;;;7.50;1.67;;;;;;;19.10;100.00;101099.28;6290323;22;20021;-44
2021/10/09 13:24:40;;;;;;;9.95;2.40;;;;;;;19.07;100.00;101094.66;6292552;22;20241;-46
2021/10/09 13:27:43;;;;;;;7.88;2.63;;;;;;;19.11;100.00;101100.06;6292663;22;20518;-45
2021/10/09 13:30:46;;;;;;;3.80;1.58;;;;;;;19.23;100.00;101091.16;6294792;22;20033;-45
2021/10/09 13:33:49;;;;;;;5.43;1.58;;;;;;;19.27;100.00;101090.94;6295146;22;20336;-45
2021/10/09 13:36:52;;;;;;;8.55;2.05;;;;;;;19.37;100.00;101095.88;6296548;22;20096;-44
2021/10/09 13:39:58;;;;;;;5.65;1.80;;;;;;;19.33;100.00;101089.69;6295038;22;20397;-45
2021/10/09 13:43:02;;;;;;;14.23;2.83;;;;;;;19.28;100.00;101092.47;6295462;22;20275;-44
2021/10/09 13:46:06;;;;;;;8.43;2.13;;;;;;;19.37;100.00;101090.22;6300036;22;20454;-44
2021/10/09 13:49:08;;;;;;;8.18;2.00;;;;;;;19.38;100.00;101091.03;6297425;22;20453;-45
2021/10/09 13:52:11;;;;;;;12.18;2.78;;;;;;;19.36;100.00;101082.28;6297578;22;20021;-45
2021/10/09 13:55:14;;;;;;;6.60;2.67;;;;;;;19.31;100.00;101085.81;6296852;22;20294;-45
2021/10/09 13:58:17;;;;;;;6.20;2.08;;;;;;;19.22;100.00;101088.84;6297257;22;20564;-45
2021/10/09 14:01:21;;;;;;;12.70;3.22;;;;;;;19.16;100.00;101086.00;6296615;22;20550;-45
2021/10/09 14:04:24;;;;;;;11.18;3.22;;;;;;;19.04;100.00;101075.91;6296842;22;20083;-45
2021/10/09 14:07:27;;;;;;;10.57;2.30;;;;;;;18.95;100.00;101075.34;6293179;22;20224;-51
2021/10/09 14:10:31;;;;;;;17.38;2.97;;;;;;;18.82;100.00;101072.94;6295248;22;20069;-50
2021/10/09 14:13:34;;;;;;;6.40;1.90;;;;;;;18.74;100.00;101061.34;6295765;22;20068;-50
2021/10/09 14:16:37;;;;;;;6.05;1.42;;;;;;;18.71;100.00;101061.59;6294790;22;20098;-47
2021/10/09 14:19:40;;;;;;;7.97;3.20;;;;;;;18.69;100.00;101064.91;6297920;22;20116;-46
2021/10/09 14:22:43;;;;;;;9.55;1.90;;;;;;;18.66;100.00;101060.28;6300349;22;20022;-47
2021/10/09 14:25:48;;;;;;;5.60;1.73;;;;;;;18.60;100.00;101064.34;6300157;22;20022;-48
2021/10/09 14:28:51;;;;;;;4.88;1.35;;;;;;;18.52;100.00;101060.41;6301442;22;20049;-49
2021/10/09 14:31:54;;;;;;;4.18;1.92;;;;;;;18.30;100.00;101071.50;6275668;22;20270;-49
2021/10/09 14:34:57;;;;;;;6.78;1.83;;;;;;;18.29;100.00;101070.72;6262968;22;20101;-48
2021/10/09 14:38:00;;;;;;;11.98;3.30;;;;;;;18.17;100.00;101071.88;6260581;22;20104;-49
2021/10/09 14:41:04;;;;;;;12.68;2.72;;;;;;;18.12;100.00;101066.97;6261275;22;20570;-48
2021/10/09 14:44:07;;;;;;;18.92;4.28;;;;;;;17.99;100.00;101073.00;6262578;22;20383;-48
2021/10/09 15:20:23;;;;;;;;;;;;;;;18.25;100.00;101069.41;6269982;22;20072;-45
2021/10/09 15:23:28;;;;;;;8.57;2.47;;;;;;;18.28;100.00;101074.06;6270614;22;20168;-44
2021/10/09 15:26:31;;;;;;;14.25;3.78;;;;;;;18.24;100.00;101073.47;6270916;22;20096;-44
2021/10/09 15:29:34;;;;;;;7.70;1.60;;;;;;;18.29;100.00;101069.94;6269645;22;20112;-44
2021/10/09 15:32:38;;;;;;;12.13;2.55;;;;;;;18.28;100.00;101068.41;6270585;22;20077;-44
2021/10/09 15:35:42;;;;;;;11.55;2.50;;;;;;;18.25;100.00;101069.41;6299702;22;20098;-44
2021/10/09 15:38:45;;;;;;;12.02;3.78;;;;;;;18.14;100.00;101070.06;6299460;22;20030;-44
2021/10/09 15:41:48;;;;;;;6.72;2.97;;;;;;;18.07;100.00;101074.09;6302074;22;20018;-44
2021/10/09 15:44:51;;;;;;;9.60;3.67;;;;;;;18.07;100.00;101071.28;6302730;22;20103;-44
2021/10/09 15:47:54;;;;;;;5.50;2.22;;;;;;;18.04;100.00;101065.88;6300551;22;20038;-45
2021/10/09 15:50:57;;;;;;;10.20;2.13;;;;;;;18.08;100.00;101078.47;6301995;22;20018;-45
2021/10/09 15:54:00;;;;;;;8.48;1.95;;;;;;;18.11;100.00;101071.84;6301682;22;21169;-45
2021/10/09 15:57:05;;;;;;;12.48;1.20;;;;;;;18.14;100.00;101073.69;6301193;22;20104;-44
2021/10/09 16:00:10;;;;;;;5.57;1.85;;;;;;;18.17;100.00;101074.69;6299009;22;20098;-49
2021/10/09 16:03:13;;;;;;;8.45;1.88;;;;;;;18.13;100.00;101074.16;6297943;22;20026;-50
2021/10/09 16:06:16;;;;;;;8.95;1.92;;;;;;;18.08;100.00;101072.81;6302270;22;20202;-50
2021/10/09 16:09:19;;;;;;;7.00;2.45;;;;;;;18.00;100.00;101071.72;6300695;22;20099;-50
2021/10/09 16:12:22;;;;;;;13.70;3.80;;;;;;;17.96;100.00;101088.09;6298655;22;20088;-46
2021/10/09 16:15:26;;;;;;;7.65;2.17;;;;;;;17.88;100.00;101081.34;6297588;22;20017;-48
2021/10/09 16:18:29;;;;;;;8.80;3.25;;;;;;;17.80;100.00;101080.22;6298330;22;20087;-48
2021/10/09 16:21:33;;;;;;;5.78;2.45;;;;;;;17.73;100.00;101080.69;6299212;22;20025;-48
2021/10/09 16:24:36;;;;;;;12.32;3.22;;;;;;;17.68;100.00;101078.56;6297433;22;20026;-48
2021/10/09 16:27:39;;;;;;;5.00;2.05;;;;;;;17.61;100.00;101081.81;6298079;22;20009;-48
2021/10/09 16:30:42;;;;;;;4.18;1.92;;;;;;;17.55;100.00;101080.19;6301456;22;20065;-48
2021/10/09 16:33:45;;;;;;;14.48;2.13;;;;;;;17.51;100.00;101074.00;6299780;22;20025;-48
2021/10/09 16:36:51;;;;;;;3.70;1.83;;;;;;;17.45;100.00;101077.47;6299663;22;20018;-48
2021/10/09 16:39:54;;;;;;;5.80;2.40;;;;;;;17.41;100.00;101076.91;6298399;22;20084;-48
2021/10/09 16:42:57;;;;;;;2.95;1.05;;;;;;;17.40;100.00;101077.44;6297587;22;20042;-48
2021/10/09 16:46:00;;;;;;;3.80;1.52;;;;;;;17.33;100.00;101064.53;6299158;22;20219;-48
2021/10/09 16:49:02;;;;;;;7.57;2.75;;;;;;;17.27;100.00;101069.34;6300761;22;20705;-48
2021/10/09 16:52:06;;;;;;;11.93;3.05;;;;;;;17.24;100.00;101072.34;6302922;22;20596;-48
2021/10/09 16:55:09;;;;;;;18.95;3.38;;;;;;;17.17;100.00;101073.53;6300891;22;20064;-48
2021/10/09 16:58:12;;;;;;;10.80;3.85;;;;;;;17.13;100.00;101075.03;6300623;22;20095;-48